createdAt,value
2023-05-04T00:00:16.947Z,9.00
2023-05-04T00:02:43.721Z,9.00
2023-05-04T00:05:12.106Z,9.00
2023-05-04T00:07:39.101Z,9.00
2023-05-04T00:10:06.549Z,9.00
2023-05-04T00:12:33.479Z,9.00
2023-05-04T00:15:00.232Z,9.00
2023-05-04T00:17:26.897Z,9.00
2023-05-04T00:19:53.582Z,9.00
2023-05-04T00:22:20.457Z,9.00
2023-05-04T00:24:47.349Z,9.10
2023-05-04T00:27:14.153Z,9.10
2023-05-04T00:29:40.792Z,9.10
2023-05-04T00:32:07.522Z,9.20
2023-05-04T00:34:34.304Z,9.10
2023-05-04T00:37:01.221Z,9.00
2023-05-04T00:39:28.320Z,8.90
2023-05-04T00:41:55.850Z,9.00
2023-05-04T00:44:23.969Z,8.80
2023-05-04T00:46:55.314Z,8.70
2023-05-04T00:49:22.653Z,8.70
2023-05-04T00:51:51.446Z,8.60
2023-05-04T00:54:18.926Z,8.70
2023-05-04T00:56:46.008Z,8.60
2023-05-04T00:59:13.852Z,8.50
2023-05-04T01:01:41.297Z,8.50
2023-05-04T01:04:08.715Z,8.50
2023-05-04T01:07:06.170Z,8.40
2023-05-04T01:09:41.862Z,8.50
2023-05-04T01:12:25.726Z,8.30
2023-05-04T01:14:54.686Z,8.30
2023-05-04T01:17:22.274Z,8.30
2023-05-04T01:19:51.060Z,8.20
2023-05-04T01:22:17.708Z,8.20
2023-05-04T01:24:44.421Z,8.30
2023-05-04T01:27:24.296Z,8.20
2023-05-04T01:29:59.993Z,8.10
2023-05-04T01:32:29.265Z,8.10
2023-05-04T01:34:58.373Z,7.90
2023-05-04T01:37:26.033Z,7.80
2023-05-04T01:39:54.073Z,7.90
2023-05-04T01:42:20.750Z,8.00
2023-05-04T01:44:47.441Z,8.10
2023-05-04T01:47:14.095Z,8.20
2023-05-04T01:49:40.772Z,8.20
2023-05-04T01:52:07.495Z,8.10
2023-05-04T01:54:34.187Z,8.20
2023-05-04T01:57:01.885Z,8.20
2023-05-04T01:59:28.862Z,8.20
2023-05-04T02:01:55.857Z,8.10
2023-05-04T02:04:22.620Z,8.10
2023-05-04T02:06:49.291Z,8.00
2023-05-04T02:09:17.397Z,8.00
2023-05-04T02:11:44.539Z,7.80
2023-05-04T02:14:11.213Z,7.70
2023-05-04T02:16:38.038Z,7.80
2023-05-04T02:19:04.824Z,7.70
2023-05-04T02:21:31.574Z,7.70
2023-05-04T02:23:59.128Z,7.70
2023-05-04T02:26:25.775Z,7.60
2023-05-04T02:28:52.573Z,7.50
2023-05-04T02:31:19.300Z,7.40
2023-05-04T02:33:45.955Z,7.50
2023-05-04T02:36:12.586Z,7.50
2023-05-04T02:38:39.231Z,7.50
2023-05-04T02:41:06.154Z,7.30
2023-05-04T02:43:32.788Z,7.30
2023-05-04T02:45:59.726Z,7.30
2023-05-04T02:48:26.434Z,7.30
2023-05-04T02:50:53.109Z,7.30
2023-05-04T02:53:19.821Z,7.30
2023-05-04T02:55:46.475Z,7.30
2023-05-04T02:58:13.089Z,7.20
2023-05-04T03:00:39.899Z,7.20
2023-05-04T03:03:07.030Z,7.20
2023-05-04T03:05:33.841Z,7.20
2023-05-04T03:08:00.951Z,7.20
2023-05-04T03:10:27.752Z,7.40
2023-05-04T03:12:54.482Z,7.40
2023-05-04T03:15:21.269Z,7.40
2023-05-04T03:17:48.206Z,7.40
2023-05-04T03:20:15.062Z,7.20
2023-05-04T03:22:42.285Z,7.20
2023-05-04T03:25:09.721Z,7.20
2023-05-04T03:27:36.890Z,7.30
2023-05-04T03:30:04.452Z,7.20
2023-05-04T03:32:31.383Z,7.20
2023-05-04T03:34:58.070Z,7.10
2023-05-04T03:37:25.127Z,7.20
2023-05-04T03:39:51.954Z,7.20
2023-05-04T03:42:18.674Z,7.20
2023-05-04T03:44:46.905Z,7.10
2023-05-04T03:47:13.573Z,7.10
2023-05-04T03:49:40.247Z,7.00
2023-05-04T03:52:07.271Z,7.10
2023-05-04T03:54:34.421Z,6.90
2023-05-04T03:57:02.247Z,7.00
2023-05-04T03:59:28.912Z,7.00
2023-05-04T04:01:55.700Z,6.90
2023-05-04T04:04:22.372Z,6.90
2023-05-04T04:06:49.094Z,6.90
2023-05-04T04:09:15.948Z,7.00
2023-05-04T04:11:42.628Z,6.90
2023-05-04T04:14:09.285Z,7.00
2023-05-04T04:16:36.049Z,7.00
2023-05-04T04:19:03.006Z,7.00
2023-05-04T04:21:29.762Z,7.00
2023-05-04T04:23:56.393Z,7.00
2023-05-04T04:26:23.045Z,6.80
2023-05-04T04:28:50.827Z,6.80
2023-05-04T04:31:21.412Z,6.70
2023-05-04T04:33:50.384Z,6.80
2023-05-04T04:36:18.129Z,6.90
2023-05-04T04:38:45.338Z,6.90
2023-05-04T04:41:12.051Z,7.00
2023-05-04T04:43:38.733Z,7.10
2023-05-04T04:46:05.836Z,7.10
2023-05-04T04:48:32.753Z,7.30
2023-05-04T04:51:02.012Z,7.30
2023-05-04T04:53:28.886Z,7.40
2023-05-04T04:55:56.118Z,7.50
2023-05-04T04:58:22.890Z,7.60
2023-05-04T05:00:52.005Z,7.60
2023-05-04T05:03:18.796Z,7.70
2023-05-04T05:05:45.622Z,7.80
2023-05-04T05:08:12.253Z,7.90
2023-05-04T05:10:39.032Z,7.90
2023-05-04T05:13:06.459Z,7.80
2023-05-04T05:15:33.210Z,7.90
2023-05-04T05:17:59.982Z,7.90
2023-05-04T05:20:26.810Z,8.10
2023-05-04T05:22:53.453Z,8.10
2023-05-04T05:25:21.799Z,8.20
2023-05-04T05:27:48.555Z,8.20
2023-05-04T05:30:15.418Z,8.20
2023-05-04T05:32:42.803Z,8.30
2023-05-04T05:35:09.729Z,8.40
2023-05-04T05:37:36.420Z,8.50
2023-05-04T05:40:06.424Z,8.70
2023-05-04T05:42:36.274Z,8.80
2023-05-04T05:45:08.205Z,9.00
2023-05-04T05:47:34.865Z,9.10
2023-05-04T05:50:01.884Z,9.20
2023-05-04T05:52:28.727Z,9.30
2023-05-04T05:54:55.497Z,9.40
2023-05-04T05:57:23.239Z,9.50
2023-05-04T05:59:50.588Z,9.50
2023-05-04T06:02:21.864Z,9.60
2023-05-04T06:04:52.103Z,9.60
2023-05-04T06:07:24.521Z,9.70
2023-05-04T06:09:53.956Z,9.80
2023-05-04T06:12:20.616Z,9.90
2023-05-04T06:14:47.924Z,9.90
2023-05-04T06:17:15.506Z,9.90
2023-05-04T06:19:48.084Z,10.10
2023-05-04T06:22:19.129Z,10.20
2023-05-04T06:24:50.320Z,10.20
2023-05-04T06:27:17.340Z,10.20
2023-05-04T06:29:43.990Z,10.20
2023-05-04T06:32:10.812Z,10.20
2023-05-04T06:34:41.075Z,10.20
2023-05-04T06:37:08.334Z,10.20
2023-05-04T06:39:38.791Z,10.30
2023-05-04T06:42:05.686Z,10.20
2023-05-04T06:44:37.866Z,10.20
2023-05-04T06:47:04.565Z,10.40
2023-05-04T06:49:32.272Z,10.40
2023-05-04T06:51:58.930Z,10.70
2023-05-04T06:54:25.693Z,10.80
2023-05-04T06:56:52.357Z,10.90
2023-05-04T06:59:20.314Z,11.10
2023-05-04T07:01:47.697Z,11.10
2023-05-04T07:04:16.394Z,11.10
2023-05-04T07:06:43.643Z,11.30
2023-05-04T07:09:10.410Z,11.40
2023-05-04T07:11:37.125Z,11.50
2023-05-04T07:14:03.782Z,11.60
2023-05-04T07:16:32.201Z,11.70
2023-05-04T07:18:59.666Z,11.80
2023-05-04T07:21:28.878Z,11.90
2023-05-04T07:23:56.825Z,12.10
2023-05-04T07:26:23.571Z,12.20
2023-05-04T07:28:50.672Z,12.20
2023-05-04T07:31:17.382Z,12.20
2023-05-04T07:33:44.068Z,12.40
2023-05-04T07:36:10.914Z,12.60
2023-05-04T07:38:39.987Z,12.80
2023-05-04T07:41:09.288Z,13.00
2023-05-04T07:43:36.826Z,13.10
2023-05-04T07:46:06.909Z,13.30
2023-05-04T07:48:41.700Z,13.40
2023-05-04T07:51:13.514Z,13.40
2023-05-04T07:53:46.984Z,13.50
2023-05-04T07:56:13.973Z,13.60
2023-05-04T07:58:41.308Z,13.50
2023-05-04T08:01:08.287Z,13.60
2023-05-04T08:03:35.107Z,13.80
2023-05-04T08:06:02.502Z,13.90
2023-05-04T08:08:32.896Z,14.00
2023-05-04T08:11:15.837Z,14.00
2023-05-04T08:14:03.626Z,14.00
2023-05-04T08:16:31.348Z,14.10
2023-05-04T08:19:02.757Z,14.30
2023-05-04T08:21:30.179Z,14.50
2023-05-04T08:23:57.877Z,14.70
2023-05-04T08:26:24.695Z,14.80
2023-05-04T08:28:52.016Z,15.00
2023-05-04T08:31:19.200Z,15.10
2023-05-04T08:33:46.207Z,15.20
2023-05-04T08:36:13.247Z,15.20
2023-05-04T08:38:43.968Z,15.20
2023-05-04T08:41:11.012Z,15.40
2023-05-04T08:43:39.647Z,15.50
2023-05-04T08:46:10.173Z,15.60
2023-05-04T08:48:37.843Z,15.60
2023-05-04T08:51:06.980Z,15.70
2023-05-04T08:53:37.107Z,15.80
2023-05-04T08:56:09.138Z,16.00
2023-05-04T08:58:48.257Z,16.10
2023-05-04T09:01:17.101Z,16.20
2023-05-04T09:03:45.991Z,16.30
2023-05-04T09:06:14.717Z,16.40
2023-05-04T09:08:41.970Z,16.50
2023-05-04T09:11:08.812Z,16.80
2023-05-04T09:13:36.487Z,16.90
2023-05-04T09:16:04.000Z,17.10
2023-05-04T09:18:41.223Z,17.20
2023-05-04T09:21:08.410Z,17.30
2023-05-04T09:23:51.623Z,17.40
2023-05-04T09:26:31.840Z,17.60
2023-05-04T09:29:14.250Z,17.80
2023-05-04T09:31:48.912Z,17.90
2023-05-04T09:34:16.028Z,18.00
2023-05-04T09:36:42.940Z,18.20
2023-05-04T09:39:13.310Z,18.20
2023-05-04T09:41:41.649Z,18.20
2023-05-04T09:44:19.638Z,18.40
2023-05-04T09:46:57.823Z,18.50
2023-05-04T09:49:35.649Z,18.70
2023-05-04T09:52:05.066Z,18.80
2023-05-04T09:54:34.758Z,18.80
2023-05-04T09:57:14.215Z,18.90
2023-05-04T09:59:41.729Z,19.00
2023-05-04T10:02:21.254Z,19.00
2023-05-04T10:04:53.642Z,19.20
2023-05-04T10:07:25.116Z,19.20
2023-05-04T10:09:53.196Z,19.30
2023-05-04T10:12:23.413Z,19.60
2023-05-04T10:14:53.727Z,19.80
2023-05-04T10:17:41.686Z,20.00
2023-05-04T10:20:26.890Z,20.00
2023-05-04T10:23:24.687Z,20.10
2023-05-04T10:26:13.442Z,20.30
2023-05-04T10:28:40.474Z,20.50
2023-05-04T10:31:07.488Z,20.90
2023-05-04T10:33:43.633Z,21.10
2023-05-04T10:36:11.641Z,21.20
2023-05-04T10:38:40.270Z,21.40
2023-05-04T10:41:15.328Z,21.40
2023-05-04T10:43:43.086Z,21.50
2023-05-04T10:46:21.482Z,21.60
2023-05-04T10:48:49.454Z,21.70
2023-05-04T10:51:35.760Z,22.00
2023-05-04T10:54:19.304Z,22.00
2023-05-04T10:56:46.261Z,22.10
2023-05-04T10:59:14.939Z,22.50
2023-05-04T11:01:46.726Z,22.60
2023-05-04T11:04:23.012Z,22.30
2023-05-04T11:07:06.685Z,22.30
2023-05-04T11:09:37.986Z,22.40
2023-05-04T11:12:05.649Z,22.60
2023-05-04T11:14:41.544Z,22.60
2023-05-04T11:17:26.623Z,22.60
2023-05-04T11:19:53.976Z,22.80
2023-05-04T11:22:21.622Z,23.00
2023-05-04T11:24:49.229Z,23.30
2023-05-04T11:27:27.981Z,23.60
2023-05-04T11:30:00.954Z,23.60
2023-05-04T11:32:51.682Z,23.60
2023-05-04T11:35:25.399Z,23.50
2023-05-04T11:37:52.785Z,23.60
2023-05-04T11:40:24.264Z,23.60
2023-05-04T11:42:55.483Z,23.40
2023-05-04T11:45:25.102Z,23.40
2023-05-04T11:47:53.094Z,23.60
2023-05-04T11:50:20.858Z,23.30
2023-05-04T11:52:48.042Z,23.30
2023-05-04T11:55:31.231Z,23.40
2023-05-04T11:58:03.446Z,23.70
2023-05-04T12:00:42.237Z,23.90
2023-05-04T12:03:14.469Z,24.10
2023-05-04T12:05:48.498Z,24.10
2023-05-04T12:08:32.317Z,24.10
2023-05-04T12:11:25.506Z,24.20
2023-05-04T12:14:06.167Z,24.30
2023-05-04T12:16:33.555Z,24.40
2023-05-04T12:19:12.950Z,24.50
2023-05-04T12:21:50.396Z,24.40
2023-05-04T12:24:17.174Z,24.60
2023-05-04T12:26:43.855Z,24.90
2023-05-04T12:29:10.618Z,25.10
2023-05-04T12:31:37.309Z,24.90
2023-05-04T12:34:04.020Z,24.80
2023-05-04T12:36:30.729Z,24.70
2023-05-04T12:38:57.370Z,24.60
2023-05-04T12:41:25.158Z,24.60
2023-05-04T12:43:51.980Z,24.70
2023-05-04T12:46:21.458Z,24.70
2023-05-04T12:48:48.531Z,24.80
2023-05-04T12:51:15.455Z,24.80
2023-05-04T12:53:43.424Z,24.60
2023-05-04T12:56:10.124Z,24.50
2023-05-04T12:58:37.080Z,24.40
2023-05-04T13:01:04.184Z,24.40
2023-05-04T13:03:31.008Z,24.30
2023-05-04T13:05:58.730Z,24.30
2023-05-04T13:08:25.678Z,24.40
2023-05-04T13:10:52.400Z,24.60
2023-05-04T13:13:19.261Z,24.50
2023-05-04T13:15:50.625Z,24.40
2023-05-04T13:18:17.475Z,24.30
2023-05-04T13:20:44.250Z,24.60
2023-05-04T13:23:11.092Z,24.90
2023-05-04T13:25:37.842Z,24.90
2023-05-04T13:28:04.610Z,24.90
2023-05-04T13:30:31.281Z,25.00
2023-05-04T13:32:58.049Z,25.00
2023-05-04T13:35:25.463Z,25.10
2023-05-04T13:37:52.557Z,25.30
2023-05-04T13:40:19.236Z,25.50
2023-05-04T13:42:46.144Z,25.50
2023-05-04T13:45:13.208Z,25.40
2023-05-04T13:47:40.576Z,25.30
2023-05-04T13:50:08.204Z,25.20
2023-05-04T13:52:35.372Z,25.20
2023-05-04T13:55:02.488Z,25.30
2023-05-04T13:57:30.420Z,25.30
2023-05-04T14:00:07.529Z,25.40
2023-05-04T14:03:04.708Z,25.50
2023-05-04T14:05:32.401Z,25.60
2023-05-04T14:07:59.430Z,25.70
2023-05-04T14:10:33.155Z,25.40
2023-05-04T14:13:12.913Z,25.40
2023-05-04T14:15:41.101Z,25.40
2023-05-04T14:18:15.596Z,25.40
2023-05-04T14:20:44.792Z,25.40
2023-05-04T14:23:11.522Z,25.40
2023-05-04T14:25:39.074Z,25.50
2023-05-04T14:28:06.105Z,25.60
2023-05-04T14:30:34.085Z,25.50
2023-05-04T14:33:03.856Z,25.30
2023-05-04T14:35:31.396Z,25.30
2023-05-04T14:38:06.014Z,25.20
2023-05-04T14:40:37.446Z,25.20
2023-05-04T14:43:04.924Z,25.20
2023-05-04T14:45:33.212Z,25.30
2023-05-04T14:48:00.605Z,25.60
2023-05-04T14:50:27.766Z,25.70
2023-05-04T14:52:54.512Z,25.60
2023-05-04T14:55:21.937Z,25.60
2023-05-04T14:57:48.566Z,25.60
2023-05-04T15:00:22.650Z,25.60
2023-05-04T15:02:53.405Z,25.40
2023-05-04T15:05:20.803Z,25.20
2023-05-04T15:08:07.078Z,25.20
2023-05-04T15:10:33.995Z,25.40
2023-05-04T15:13:01.910Z,25.50
2023-05-04T15:15:31.358Z,25.30
2023-05-04T15:18:06.201Z,25.00
2023-05-04T15:20:33.211Z,24.70
2023-05-04T15:23:00.078Z,24.50
2023-05-04T15:25:27.485Z,24.40
2023-05-04T15:27:55.224Z,24.50
2023-05-04T15:30:23.672Z,24.40
2023-05-04T15:32:51.922Z,24.40
2023-05-04T15:35:18.868Z,24.30
2023-05-04T15:37:45.566Z,24.20
2023-05-04T15:40:12.825Z,24.10
2023-05-04T15:42:39.626Z,24.10
2023-05-04T15:45:10.609Z,24.10
2023-05-04T15:47:39.123Z,24.00
2023-05-04T15:50:06.919Z,24.00
2023-05-04T15:52:33.749Z,24.10
2023-05-04T15:55:12.404Z,24.00
2023-05-04T15:57:43.688Z,23.90
2023-05-04T16:00:11.379Z,23.90
2023-05-04T16:02:38.827Z,23.90
2023-05-04T16:05:06.808Z,23.90
2023-05-04T16:07:34.061Z,24.00
2023-05-04T16:10:00.875Z,24.10
2023-05-04T16:12:27.512Z,24.10
2023-05-04T16:14:54.195Z,24.00
2023-05-04T16:17:21.831Z,23.90
2023-05-04T16:19:48.508Z,23.70
2023-05-04T16:22:15.206Z,23.60
2023-05-04T16:24:41.892Z,23.60
2023-05-04T16:27:08.548Z,23.50
2023-05-04T16:29:39.918Z,23.50
2023-05-04T16:32:13.038Z,23.40
2023-05-04T16:34:40.104Z,23.30
2023-05-04T16:37:12.691Z,23.30
2023-05-04T16:39:40.356Z,23.30
2023-05-04T16:42:07.408Z,23.30
2023-05-04T16:44:34.035Z,23.30
2023-05-04T16:47:00.952Z,23.20
2023-05-04T16:49:27.691Z,23.10
2023-05-04T16:51:55.206Z,23.00
2023-05-04T16:54:24.749Z,22.80
2023-05-04T16:56:52.246Z,22.70
2023-05-04T16:59:18.978Z,22.60
2023-05-04T17:01:46.750Z,22.60
2023-05-04T17:04:13.545Z,22.60
2023-05-04T17:06:40.296Z,22.60
2023-05-04T17:09:07.033Z,22.50
2023-05-04T17:11:34.387Z,22.40
2023-05-04T17:14:04.823Z,22.30
2023-05-04T17:16:31.595Z,22.20
2023-05-04T17:18:58.373Z,22.30
2023-05-04T17:21:25.071Z,22.30
2023-05-04T17:23:51.756Z,22.20
2023-05-04T17:26:28.215Z,22.10
2023-05-04T17:28:56.170Z,22.00
2023-05-04T17:31:22.981Z,21.80
2023-05-04T17:33:49.684Z,21.90
2023-05-04T17:36:16.370Z,21.90
2023-05-04T17:38:43.648Z,22.00
2023-05-04T17:41:10.440Z,21.90
2023-05-04T17:43:37.235Z,21.80
2023-05-04T17:46:04.194Z,21.60
2023-05-04T17:48:31.822Z,21.60
2023-05-04T17:50:59.222Z,21.60
2023-05-04T17:53:29.233Z,21.50
2023-05-04T17:55:55.868Z,21.40
2023-05-04T17:58:22.811Z,21.30
2023-05-04T18:00:53.366Z,21.20
2023-05-04T18:03:24.468Z,21.10
2023-05-04T18:05:51.346Z,21.00
2023-05-04T18:08:18.880Z,21.00
2023-05-04T18:10:45.918Z,20.90
2023-05-04T18:13:12.944Z,20.80
2023-05-04T18:15:39.931Z,20.70
2023-05-04T18:18:10.933Z,20.60
2023-05-04T18:20:37.907Z,20.60
2023-05-04T18:23:07.835Z,20.40
2023-05-04T18:25:37.222Z,20.30
2023-05-04T18:28:04.095Z,20.40
2023-05-04T18:30:30.748Z,20.20
2023-05-04T18:32:57.583Z,19.90
2023-05-04T18:35:24.400Z,19.80
2023-05-04T18:37:51.374Z,19.70
2023-05-04T18:40:18.162Z,19.70
2023-05-04T18:42:45.454Z,19.70
2023-05-04T18:45:12.755Z,19.60
2023-05-04T18:47:39.927Z,19.60
2023-05-04T18:50:07.722Z,19.40
2023-05-04T18:52:34.992Z,19.40
2023-05-04T18:55:01.738Z,19.20
2023-05-04T18:57:30.040Z,19.20
2023-05-04T18:59:56.827Z,19.20
2023-05-04T19:02:24.818Z,18.90
2023-05-04T19:04:51.702Z,18.80
2023-05-04T19:07:18.615Z,18.80
2023-05-04T19:09:45.940Z,18.90
2023-05-04T19:12:13.997Z,18.90
2023-05-04T19:14:42.865Z,18.80
2023-05-04T19:17:09.482Z,18.40
2023-05-04T19:19:37.560Z,18.10
2023-05-04T19:22:04.458Z,18.20
2023-05-04T19:24:31.544Z,18.10
2023-05-04T19:27:00.212Z,18.10
2023-05-04T19:29:28.161Z,17.90
2023-05-04T19:31:55.037Z,18.00
2023-05-04T19:34:22.067Z,17.80
2023-05-04T19:36:49.221Z,17.70
2023-05-04T19:39:16.824Z,17.70
2023-05-04T19:41:43.927Z,17.70
2023-05-04T19:44:11.878Z,17.70
2023-05-04T19:46:38.680Z,17.50
2023-05-04T19:49:05.555Z,17.60
2023-05-04T19:51:32.816Z,17.50
2023-05-04T19:53:59.645Z,17.50
2023-05-04T19:56:26.491Z,17.30
2023-05-04T19:58:53.447Z,17.10
2023-05-04T20:01:20.627Z,17.00
2023-05-04T20:03:47.507Z,17.10
2023-05-04T20:06:14.599Z,17.00
2023-05-04T20:08:44.614Z,16.90
2023-05-04T20:11:13.160Z,16.80
2023-05-04T20:13:40.061Z,16.80
2023-05-04T20:16:07.477Z,16.70
2023-05-04T20:18:34.433Z,16.80
2023-05-04T20:21:01.445Z,16.80
2023-05-04T20:23:28.137Z,16.50
2023-05-04T20:25:55.287Z,16.60
2023-05-04T20:28:22.839Z,16.50
2023-05-04T20:30:49.982Z,16.60
2023-05-04T20:33:17.058Z,16.30
2023-05-04T20:35:45.329Z,16.00
2023-05-04T20:38:12.344Z,16.10
2023-05-04T20:40:39.384Z,16.10
2023-05-04T20:43:06.067Z,16.00
2023-05-04T20:45:34.327Z,15.90
2023-05-04T20:48:04.712Z,15.90
2023-05-04T20:50:31.716Z,15.80
2023-05-04T20:53:01.283Z,15.80
2023-05-04T20:55:28.169Z,15.70
2023-05-04T20:57:55.637Z,15.50
2023-05-04T21:00:24.664Z,15.40
2023-05-04T21:02:51.445Z,15.50
2023-05-04T21:05:18.927Z,15.50
2023-05-04T21:07:45.868Z,15.40
2023-05-04T21:10:12.817Z,15.30
2023-05-04T21:12:39.618Z,15.20
2023-05-04T21:15:07.000Z,15.10
2023-05-04T21:17:33.788Z,15.10
2023-05-04T21:20:01.021Z,15.20
2023-05-04T21:22:30.261Z,15.10
2023-05-04T21:24:57.068Z,15.00
2023-05-04T21:27:26.977Z,14.80
2023-05-04T21:29:55.738Z,14.80
2023-05-04T21:32:24.613Z,14.60
2023-05-04T21:34:54.928Z,14.60
2023-05-04T21:37:21.843Z,14.60
2023-05-04T21:39:54.116Z,14.50
2023-05-04T21:42:21.380Z,14.60
2023-05-04T21:44:54.232Z,14.40
2023-05-04T21:47:21.031Z,14.20
2023-05-04T21:49:47.845Z,14.20
2023-05-04T21:52:14.725Z,14.20
2023-05-04T21:54:41.359Z,14.20
2023-05-04T21:57:07.999Z,14.30
2023-05-04T21:59:34.658Z,14.30
2023-05-04T22:02:01.576Z,14.10
2023-05-04T22:04:28.221Z,14.10
2023-05-04T22:06:55.107Z,14.10
2023-05-04T22:09:21.937Z,14.00
2023-05-04T22:11:49.452Z,14.00
2023-05-04T22:14:16.092Z,13.80
2023-05-04T22:16:42.801Z,13.90
2023-05-04T22:19:09.537Z,13.70
2023-05-04T22:21:39.265Z,13.80
2023-05-04T22:24:06.663Z,13.80
2023-05-04T22:26:33.305Z,13.70
2023-05-04T22:29:00.027Z,13.60
2023-05-04T22:31:26.696Z,13.50
2023-05-04T22:33:53.378Z,13.40
2023-05-04T22:36:20.057Z,13.60
2023-05-04T22:38:46.855Z,13.70
2023-05-04T22:41:14.466Z,13.50
2023-05-04T22:43:41.300Z,13.50
2023-05-04T22:46:13.328Z,13.40
2023-05-04T22:48:39.992Z,13.30
2023-05-04T22:51:06.646Z,13.50
2023-05-04T22:53:33.283Z,13.50
2023-05-04T22:55:59.937Z,13.50
2023-05-04T22:58:26.936Z,13.30
2023-05-04T23:00:53.590Z,13.30
2023-05-04T23:03:20.263Z,13.20
2023-05-04T23:05:47.608Z,13.10
2023-05-04T23:08:14.329Z,13.10
2023-05-04T23:10:46.977Z,13.00
2023-05-04T23:13:13.715Z,13.10
2023-05-04T23:15:40.414Z,13.00
2023-05-04T23:18:07.237Z,13.00
2023-05-04T23:20:33.945Z,13.10
2023-05-04T23:23:00.620Z,13.10
2023-05-04T23:25:27.346Z,13.10
2023-05-04T23:27:54.691Z,13.10
2023-05-04T23:30:21.344Z,13.00
2023-05-04T23:32:48.027Z,12.90
2023-05-04T23:35:14.935Z,12.80
2023-05-04T23:37:41.858Z,12.80
2023-05-04T23:40:09.362Z,12.90
2023-05-04T23:42:36.165Z,13.10
2023-05-04T23:45:02.825Z,13.00
2023-05-04T23:47:29.496Z,12.90
2023-05-04T23:49:56.284Z,12.80
2023-05-04T23:52:23.112Z,12.70
2023-05-04T23:54:53.915Z,12.80
2023-05-04T23:57:20.629Z,12.80
2023-05-04T23:59:47.522Z,12.70
